sensor_id;sensor_type;location;lat;lon;timestamp;P1;durP1;ratioP1;P2;durP2;ratioP2
55493;SDS011;41355;50.390;19.096;2023-03-23T00:01:33;68.90;;;24.48;;
55493;SDS011;41355;50.390;19.096;2023-03-23T00:04:02;44.38;;;15.85;;
55493;SDS011;41355;50.390;19.096;2023-03-23T00:06:28;50.42;;;21.20;;
55493;SDS011;41355;50.390;19.096;2023-03-23T00:08:59;51.53;;;19.33;;
55493;SDS011;41355;50.390;19.096;2023-03-23T00:11:30;60.22;;;19.05;;
55493;SDS011;41355;50.390;19.096;2023-03-23T00:13:57;56.95;;;20.08;;
55493;SDS011;41355;50.390;19.096;2023-03-23T00:16:26;55.60;;;20.27;;
55493;SDS011;41355;50.390;19.096;2023-03-23T00:19:04;54.58;;;20.77;;
55493;SDS011;41355;50.390;19.096;2023-03-23T00:21:32;45.33;;;15.90;;
55493;SDS011;41355;50.390;19.096;2023-03-23T00:24:10;55.30;;;21.40;;
55493;SDS011;41355;50.390;19.096;2023-03-23T00:26:37;43.92;;;17.00;;
55493;SDS011;41355;50.390;19.096;2023-03-23T00:29:06;52.10;;;19.35;;
55493;SDS011;41355;50.390;19.096;2023-03-23T00:31:32;55.10;;;22.70;;
55493;SDS011;41355;50.390;19.096;2023-03-23T00:34:01;45.95;;;20.00;;
55493;SDS011;41355;50.390;19.096;2023-03-23T00:36:29;49.47;;;22.60;;
55493;SDS011;41355;50.390;19.096;2023-03-23T00:38:55;47.63;;;16.63;;
55493;SDS011;41355;50.390;19.096;2023-03-23T00:41:26;49.35;;;18.02;;
55493;SDS011;41355;50.390;19.096;2023-03-23T00:43:56;49.67;;;18.77;;
55493;SDS011;41355;50.390;19.096;2023-03-23T00:46:23;52.80;;;21.63;;
55493;SDS011;41355;50.390;19.096;2023-03-23T00:48:49;50.28;;;18.05;;
55493;SDS011;41355;50.390;19.096;2023-03-23T00:51:19;59.90;;;23.98;;
55493;SDS011;41355;50.390;19.096;2023-03-23T00:53:45;58.13;;;23.15;;
55493;SDS011;41355;50.390;19.096;2023-03-23T00:56:12;58.80;;;23.48;;
55493;SDS011;41355;50.390;19.096;2023-03-23T00:58:38;54.95;;;22.30;;
55493;SDS011;41355;50.390;19.096;2023-03-23T01:01:05;48.70;;;23.08;;
55493;SDS011;41355;50.390;19.096;2023-03-23T01:03:31;65.00;;;26.88;;
55493;SDS011;41355;50.390;19.096;2023-03-23T01:06:03;59.22;;;25.45;;
55493;SDS011;41355;50.390;19.096;2023-03-23T01:08:30;57.78;;;22.48;;
55493;SDS011;41355;50.390;19.096;2023-03-23T01:11:05;60.35;;;23.55;;
55493;SDS011;41355;50.390;19.096;2023-03-23T01:13:32;49.47;;;21.08;;
55493;SDS011;41355;50.390;19.096;2023-03-23T01:15:58;53.40;;;23.92;;
55493;SDS011;41355;50.390;19.096;2023-03-23T01:18:24;46.00;;;19.17;;
55493;SDS011;41355;50.390;19.096;2023-03-23T01:20:50;57.72;;;22.58;;
55493;SDS011;41355;50.390;19.096;2023-03-23T01:23:16;52.22;;;20.08;;
55493;SDS011;41355;50.390;19.096;2023-03-23T01:25:42;46.25;;;19.98;;
55493;SDS011;41355;50.390;19.096;2023-03-23T01:28:10;59.38;;;22.33;;
55493;SDS011;41355;50.390;19.096;2023-03-23T01:30:36;52.90;;;21.10;;
55493;SDS011;41355;50.390;19.096;2023-03-23T01:33:02;41.83;;;18.73;;
55493;SDS011;41355;50.390;19.096;2023-03-23T01:35:28;51.05;;;22.30;;
55493;SDS011;41355;50.390;19.096;2023-03-23T01:37:54;54.15;;;21.20;;
55493;SDS011;41355;50.390;19.096;2023-03-23T01:40:20;54.25;;;18.30;;
55493;SDS011;41355;50.390;19.096;2023-03-23T01:42:46;50.30;;;21.23;;
55493;SDS011;41355;50.390;19.096;2023-03-23T01:47:48;50.92;;;22.35;;
55493;SDS011;41355;50.390;19.096;2023-03-23T01:50:16;65.43;;;27.45;;
55493;SDS011;41355;50.390;19.096;2023-03-23T01:52:42;55.35;;;22.70;;
55493;SDS011;41355;50.390;19.096;2023-03-23T01:55:09;57.83;;;22.55;;
55493;SDS011;41355;50.390;19.096;2023-03-23T01:57:35;58.17;;;23.55;;
55493;SDS011;41355;50.390;19.096;2023-03-23T02:00:04;55.55;;;22.85;;
55493;SDS011;41355;50.390;19.096;2023-03-23T02:02:39;56.80;;;20.27;;
55493;SDS011;41355;50.390;19.096;2023-03-23T02:05:08;49.08;;;21.02;;
55493;SDS011;41355;50.390;19.096;2023-03-23T02:07:36;50.83;;;19.75;;
55493;SDS011;41355;50.390;19.096;2023-03-23T02:10:03;55.72;;;23.15;;
55493;SDS011;41355;50.390;19.096;2023-03-23T02:12:29;60.38;;;22.92;;
55493;SDS011;41355;50.390;19.096;2023-03-23T02:14:55;56.20;;;23.85;;
55493;SDS011;41355;50.390;19.096;2023-03-23T02:24:54;47.22;;;19.77;;
55493;SDS011;41355;50.390;19.096;2023-03-23T02:37:52;45.80;;;20.20;;
55493;SDS011;41355;50.390;19.096;2023-03-23T02:40:25;45.10;;;19.38;;
55493;SDS011;41355;50.390;19.096;2023-03-23T02:42:53;55.95;;;20.98;;
55493;SDS011;41355;50.390;19.096;2023-03-23T02:45:20;50.15;;;19.88;;
55493;SDS011;41355;50.390;19.096;2023-03-23T02:47:48;43.95;;;20.10;;
55493;SDS011;41355;50.390;19.096;2023-03-23T02:50:15;49.00;;;22.65;;
55493;SDS011;41355;50.390;19.096;2023-03-23T02:52:42;51.33;;;20.33;;
55493;SDS011;41355;50.390;19.096;2023-03-23T02:55:09;47.20;;;20.70;;
55493;SDS011;41355;50.390;19.096;2023-03-23T02:57:37;47.90;;;19.88;;
55493;SDS011;41355;50.390;19.096;2023-03-23T03:00:04;45.90;;;19.60;;
55493;SDS011;41355;50.390;19.096;2023-03-23T03:02:35;54.15;;;22.00;;
55493;SDS011;41355;50.390;19.096;2023-03-23T03:10:34;50.97;;;20.52;;
55493;SDS011;41355;50.390;19.096;2023-03-23T03:13:05;50.08;;;20.98;;
55493;SDS011;41355;50.390;19.096;2023-03-23T03:15:37;50.00;;;21.30;;
55493;SDS011;41355;50.390;19.096;2023-03-23T03:18:11;52.05;;;21.33;;
55493;SDS011;41355;50.390;19.096;2023-03-23T03:20:49;39.37;;;18.60;;
55493;SDS011;41355;50.390;19.096;2023-03-23T03:23:18;45.40;;;20.88;;
55493;SDS011;41355;50.390;19.096;2023-03-23T03:25:45;50.30;;;21.95;;
55493;SDS011;41355;50.390;19.096;2023-03-23T03:28:14;53.03;;;19.15;;
55493;SDS011;41355;50.390;19.096;2023-03-23T03:30:41;44.67;;;19.23;;
55493;SDS011;41355;50.390;19.096;2023-03-23T03:33:09;44.42;;;18.63;;
55493;SDS011;41355;50.390;19.096;2023-03-23T03:35:37;43.63;;;19.20;;
55493;SDS011;41355;50.390;19.096;2023-03-23T03:38:05;45.35;;;20.38;;
55493;SDS011;41355;50.390;19.096;2023-03-23T03:40:31;46.92;;;20.55;;
55493;SDS011;41355;50.390;19.096;2023-03-23T03:42:57;49.72;;;20.80;;
55493;SDS011;41355;50.390;19.096;2023-03-23T03:45:23;48.35;;;19.70;;
55493;SDS011;41355;50.390;19.096;2023-03-23T03:47:49;51.55;;;19.70;;
55493;SDS011;41355;50.390;19.096;2023-03-23T03:50:15;42.22;;;18.83;;
55493;SDS011;41355;50.390;19.096;2023-03-23T03:52:41;44.88;;;20.30;;
55493;SDS011;41355;50.390;19.096;2023-03-23T03:55:08;44.78;;;18.90;;
55493;SDS011;41355;50.390;19.096;2023-03-23T03:57:35;36.55;;;17.65;;
55493;SDS011;41355;50.390;19.096;2023-03-23T04:00:02;49.60;;;18.73;;
55493;SDS011;41355;50.390;19.096;2023-03-23T04:02:38;38.80;;;19.08;;
55493;SDS011;41355;50.390;19.096;2023-03-23T04:05:05;42.92;;;17.92;;
55493;SDS011;41355;50.390;19.096;2023-03-23T04:07:31;42.08;;;19.20;;
55493;SDS011;41355;50.390;19.096;2023-03-23T04:09:57;51.88;;;19.83;;
55493;SDS011;41355;50.390;19.096;2023-03-23T04:12:23;41.33;;;19.25;;
55493;SDS011;41355;50.390;19.096;2023-03-23T04:14:50;39.55;;;18.75;;
55493;SDS011;41355;50.390;19.096;2023-03-23T04:17:16;37.75;;;17.02;;
55493;SDS011;41355;50.390;19.096;2023-03-23T04:19:42;42.60;;;18.85;;
55493;SDS011;41355;50.390;19.096;2023-03-23T04:22:10;39.10;;;17.67;;
55493;SDS011;41355;50.390;19.096;2023-03-23T04:24:36;41.10;;;16.45;;
55493;SDS011;41355;50.390;19.096;2023-03-23T04:27:02;35.28;;;17.00;;
55493;SDS011;41355;50.390;19.096;2023-03-23T04:29:28;40.83;;;16.98;;
55493;SDS011;41355;50.390;19.096;2023-03-23T04:31:55;40.40;;;17.27;;
55493;SDS011;41355;50.390;19.096;2023-03-23T04:34:22;38.03;;;17.48;;
55493;SDS011;41355;50.390;19.096;2023-03-23T04:36:48;47.75;;;19.10;;
55493;SDS011;41355;50.390;19.096;2023-03-23T04:39:14;39.70;;;17.20;;
55493;SDS011;41355;50.390;19.096;2023-03-23T04:41:41;49.25;;;20.05;;
55493;SDS011;41355;50.390;19.096;2023-03-23T04:44:07;41.55;;;18.20;;
55493;SDS011;41355;50.390;19.096;2023-03-23T04:46:33;44.42;;;19.27;;
55493;SDS011;41355;50.390;19.096;2023-03-23T04:48:59;36.45;;;17.08;;
55493;SDS011;41355;50.390;19.096;2023-03-23T04:51:28;47.50;;;20.38;;
55493;SDS011;41355;50.390;19.096;2023-03-23T04:53:56;46.53;;;17.95;;
55493;SDS011;41355;50.390;19.096;2023-03-23T04:56:22;41.10;;;17.40;;
55493;SDS011;41355;50.390;19.096;2023-03-23T04:58:48;42.90;;;17.33;;
55493;SDS011;41355;50.390;19.096;2023-03-23T05:01:14;40.15;;;17.63;;
55493;SDS011;41355;50.390;19.096;2023-03-23T05:03:43;51.55;;;18.35;;
55493;SDS011;41355;50.390;19.096;2023-03-23T05:06:09;48.88;;;18.55;;
55493;SDS011;41355;50.390;19.096;2023-03-23T05:08:36;39.15;;;17.55;;
55493;SDS011;41355;50.390;19.096;2023-03-23T05:11:05;62.92;;;22.67;;
55493;SDS011;41355;50.390;19.096;2023-03-23T05:13:31;68.93;;;27.73;;
55493;SDS011;41355;50.390;19.096;2023-03-23T05:15:58;64.25;;;23.67;;
55493;SDS011;41355;50.390;19.096;2023-03-23T05:18:24;60.33;;;22.13;;
55493;SDS011;41355;50.390;19.096;2023-03-23T05:20:51;56.45;;;22.27;;
55493;SDS011;41355;50.390;19.096;2023-03-23T05:23:18;47.35;;;19.42;;
55493;SDS011;41355;50.390;19.096;2023-03-23T05:25:55;48.88;;;20.00;;
55493;SDS011;41355;50.390;19.096;2023-03-23T05:28:22;49.72;;;18.17;;
55493;SDS011;41355;50.390;19.096;2023-03-23T05:30:48;61.13;;;19.38;;
55493;SDS011;41355;50.390;19.096;2023-03-23T05:33:15;68.30;;;20.67;;
55493;SDS011;41355;50.390;19.096;2023-03-23T05:35:41;56.30;;;19.08;;
55493;SDS011;41355;50.390;19.096;2023-03-23T05:38:07;46.15;;;18.55;;
55493;SDS011;41355;50.390;19.096;2023-03-23T05:40:33;34.35;;;14.25;;
55493;SDS011;41355;50.390;19.096;2023-03-23T05:42:59;47.47;;;16.38;;
55493;SDS011;41355;50.390;19.096;2023-03-23T05:45:25;37.58;;;15.73;;
55493;SDS011;41355;50.390;19.096;2023-03-23T05:47:51;35.47;;;16.65;;
55493;SDS011;41355;50.390;19.096;2023-03-23T05:50:18;31.25;;;13.30;;
55493;SDS011;41355;50.390;19.096;2023-03-23T05:52:44;39.45;;;16.67;;
55493;SDS011;41355;50.390;19.096;2023-03-23T05:55:10;32.78;;;13.48;;
55493;SDS011;41355;50.390;19.096;2023-03-23T05:57:37;41.90;;;15.30;;
55493;SDS011;41355;50.390;19.096;2023-03-23T06:00:04;39.90;;;14.23;;
55493;SDS011;41355;50.390;19.096;2023-03-23T06:02:40;31.48;;;11.50;;
55493;SDS011;41355;50.390;19.096;2023-03-23T06:05:10;32.75;;;13.98;;
55493;SDS011;41355;50.390;19.096;2023-03-23T06:07:36;32.90;;;12.15;;
55493;SDS011;41355;50.390;19.096;2023-03-23T06:10:03;32.53;;;11.65;;
55493;SDS011;41355;50.390;19.096;2023-03-23T06:12:29;31.48;;;12.43;;
55493;SDS011;41355;50.390;19.096;2023-03-23T06:14:56;34.58;;;13.23;;
55493;SDS011;41355;50.390;19.096;2023-03-23T06:17:22;30.90;;;12.85;;
55493;SDS011;41355;50.390;19.096;2023-03-23T06:19:48;28.45;;;12.85;;
55493;SDS011;41355;50.390;19.096;2023-03-23T06:22:15;29.90;;;12.85;;
55493;SDS011;41355;50.390;19.096;2023-03-23T06:24:41;33.45;;;15.48;;
55493;SDS011;41355;50.390;19.096;2023-03-23T06:27:09;31.30;;;13.25;;
55493;SDS011;41355;50.390;19.096;2023-03-23T06:29:35;28.67;;;12.32;;
55493;SDS011;41355;50.390;19.096;2023-03-23T06:32:02;34.78;;;12.13;;
55493;SDS011;41355;50.390;19.096;2023-03-23T06:34:29;30.27;;;11.82;;
55493;SDS011;41355;50.390;19.096;2023-03-23T06:36:56;29.08;;;11.88;;
55493;SDS011;41355;50.390;19.096;2023-03-23T06:39:22;25.33;;;11.98;;
55493;SDS011;41355;50.390;19.096;2023-03-23T06:41:48;28.48;;;11.05;;
55493;SDS011;41355;50.390;19.096;2023-03-23T06:44:14;28.45;;;12.52;;
55493;SDS011;41355;50.390;19.096;2023-03-23T06:46:41;22.27;;;9.95;;
55493;SDS011;41355;50.390;19.096;2023-03-23T06:49:07;20.08;;;8.60;;
55493;SDS011;41355;50.390;19.096;2023-03-23T06:51:33;24.75;;;11.13;;
55493;SDS011;41355;50.390;19.096;2023-03-23T06:54:00;26.33;;;8.93;;
55493;SDS011;41355;50.390;19.096;2023-03-23T06:56:26;21.67;;;9.65;;
55493;SDS011;41355;50.390;19.096;2023-03-23T06:58:52;26.15;;;11.45;;
55493;SDS011;41355;50.390;19.096;2023-03-23T07:01:18;26.38;;;10.77;;
55493;SDS011;41355;50.390;19.096;2023-03-23T07:03:45;17.20;;;6.20;;
55493;SDS011;41355;50.390;19.096;2023-03-23T07:06:11;19.45;;;6.82;;
55493;SDS011;41355;50.390;19.096;2023-03-23T07:08:37;16.17;;;6.85;;
55493;SDS011;41355;50.390;19.096;2023-03-23T07:11:04;18.23;;;7.68;;
55493;SDS011;41355;50.390;19.096;2023-03-23T07:13:30;22.70;;;8.27;;
55493;SDS011;41355;50.390;19.096;2023-03-23T07:15:56;14.32;;;6.93;;
55493;SDS011;41355;50.390;19.096;2023-03-23T07:18:23;15.23;;;6.20;;
55493;SDS011;41355;50.390;19.096;2023-03-23T07:20:49;19.85;;;7.50;;
55493;SDS011;41355;50.390;19.096;2023-03-23T07:23:16;17.40;;;7.18;;
55493;SDS011;41355;50.390;19.096;2023-03-23T07:25:43;26.60;;;8.23;;
55493;SDS011;41355;50.390;19.096;2023-03-23T07:28:10;12.55;;;3.95;;
55493;SDS011;41355;50.390;19.096;2023-03-23T07:30:37;21.20;;;9.27;;
55493;SDS011;41355;50.390;19.096;2023-03-23T07:33:07;22.42;;;8.80;;
55493;SDS011;41355;50.390;19.096;2023-03-23T07:35:33;22.13;;;8.13;;
55493;SDS011;41355;50.390;19.096;2023-03-23T07:38:00;12.00;;;5.53;;
55493;SDS011;41355;50.390;19.096;2023-03-23T07:40:27;15.95;;;7.07;;
55493;SDS011;41355;50.390;19.096;2023-03-23T07:42:54;12.95;;;5.47;;
55493;SDS011;41355;50.390;19.096;2023-03-23T07:45:20;10.90;;;4.75;;
55493;SDS011;41355;50.390;19.096;2023-03-23T07:47:47;13.85;;;6.25;;
55493;SDS011;41355;50.390;19.096;2023-03-23T07:50:13;8.35;;;3.88;;
55493;SDS011;41355;50.390;19.096;2023-03-23T07:52:39;6.68;;;3.40;;
55493;SDS011;41355;50.390;19.096;2023-03-23T07:55:10;11.95;;;5.10;;
55493;SDS011;41355;50.390;19.096;2023-03-23T07:57:42;12.30;;;5.07;;
55493;SDS011;41355;50.390;19.096;2023-03-23T08:00:08;13.30;;;5.32;;
55493;SDS011;41355;50.390;19.096;2023-03-23T08:02:39;11.95;;;6.20;;
55493;SDS011;41355;50.390;19.096;2023-03-23T08:05:06;6.88;;;2.60;;
55493;SDS011;41355;50.390;19.096;2023-03-23T08:07:33;10.77;;;5.05;;
55493;SDS011;41355;50.390;19.096;2023-03-23T08:10:00;12.68;;;5.95;;
55493;SDS011;41355;50.390;19.096;2023-03-23T08:12:26;14.43;;;5.78;;
55493;SDS011;41355;50.390;19.096;2023-03-23T08:14:52;12.52;;;5.60;;
55493;SDS011;41355;50.390;19.096;2023-03-23T08:17:19;17.88;;;7.95;;
55493;SDS011;41355;50.390;19.096;2023-03-23T08:19:45;17.42;;;8.32;;
55493;SDS011;41355;50.390;19.096;2023-03-23T08:22:11;12.55;;;5.05;;
55493;SDS011;41355;50.390;19.096;2023-03-23T08:24:38;18.42;;;9.27;;
55493;SDS011;41355;50.390;19.096;2023-03-23T08:27:04;13.43;;;4.90;;
55493;SDS011;41355;50.390;19.096;2023-03-23T08:29:31;14.63;;;6.03;;
55493;SDS011;41355;50.390;19.096;2023-03-23T08:31:58;17.42;;;7.00;;
55493;SDS011;41355;50.390;19.096;2023-03-23T08:34:24;15.32;;;7.15;;
55493;SDS011;41355;50.390;19.096;2023-03-23T08:36:50;7.32;;;3.55;;
55493;SDS011;41355;50.390;19.096;2023-03-23T08:39:16;15.45;;;5.28;;
55493;SDS011;41355;50.390;19.096;2023-03-23T08:41:43;14.63;;;6.57;;
55493;SDS011;41355;50.390;19.096;2023-03-23T08:44:09;14.18;;;7.88;;
55493;SDS011;41355;50.390;19.096;2023-03-23T08:46:36;11.90;;;6.18;;
55493;SDS011;41355;50.390;19.096;2023-03-23T08:49:02;17.08;;;7.32;;
55493;SDS011;41355;50.390;19.096;2023-03-23T08:51:28;16.08;;;7.75;;
55493;SDS011;41355;50.390;19.096;2023-03-23T08:53:54;16.77;;;7.03;;
55493;SDS011;41355;50.390;19.096;2023-03-23T08:56:20;14.82;;;6.20;;
55493;SDS011;41355;50.390;19.096;2023-03-23T08:58:47;13.93;;;8.07;;
55493;SDS011;41355;50.390;19.096;2023-03-23T09:01:13;12.43;;;6.18;;
55493;SDS011;41355;50.390;19.096;2023-03-23T09:03:40;12.45;;;6.93;;
55493;SDS011;41355;50.390;19.096;2023-03-23T09:06:06;13.52;;;6.90;;
55493;SDS011;41355;50.390;19.096;2023-03-23T09:08:34;14.10;;;6.60;;
55493;SDS011;41355;50.390;19.096;2023-03-23T09:11:04;14.95;;;7.13;;
55493;SDS011;41355;50.390;19.096;2023-03-23T09:13:31;18.27;;;6.30;;
55493;SDS011;41355;50.390;19.096;2023-03-23T09:15:58;16.50;;;6.85;;
55493;SDS011;41355;50.390;19.096;2023-03-23T09:18:24;14.75;;;7.47;;
55493;SDS011;41355;50.390;19.096;2023-03-23T09:20:51;12.95;;;5.80;;
55493;SDS011;41355;50.390;19.096;2023-03-23T09:23:18;10.55;;;5.22;;
55493;SDS011;41355;50.390;19.096;2023-03-23T09:25:45;12.65;;;5.13;;
55493;SDS011;41355;50.390;19.096;2023-03-23T09:28:11;21.23;;;9.32;;
55493;SDS011;41355;50.390;19.096;2023-03-23T09:30:39;18.30;;;9.38;;
55493;SDS011;41355;50.390;19.096;2023-03-23T09:33:06;15.60;;;7.95;;
55493;SDS011;41355;50.390;19.096;2023-03-23T09:35:36;18.08;;;7.70;;
55493;SDS011;41355;50.390;19.096;2023-03-23T09:38:03;17.10;;;6.75;;
55493;SDS011;41355;50.390;19.096;2023-03-23T09:40:54;11.13;;;5.45;;
55493;SDS011;41355;50.390;19.096;2023-03-23T09:46:04;15.52;;;5.85;;
55493;SDS011;41355;50.390;19.096;2023-03-23T09:51:23;15.30;;;6.80;;
55493;SDS011;41355;50.390;19.096;2023-03-23T09:53:52;12.15;;;4.28;;
55493;SDS011;41355;50.390;19.096;2023-03-23T09:56:20;13.75;;;5.30;;
55493;SDS011;41355;50.390;19.096;2023-03-23T10:03:48;10.57;;;3.78;;
55493;SDS011;41355;50.390;19.096;2023-03-23T10:06:15;11.50;;;4.47;;
55493;SDS011;41355;50.390;19.096;2023-03-23T10:08:48;7.35;;;3.10;;
55493;SDS011;41355;50.390;19.096;2023-03-23T10:14:19;11.80;;;5.55;;
55493;SDS011;41355;50.390;19.096;2023-03-23T10:16:40;11.75;;;5.35;;
55493;SDS011;41355;50.390;19.096;2023-03-23T10:19:18;11.90;;;4.65;;
55493;SDS011;41355;50.390;19.096;2023-03-23T10:21:47;7.75;;;2.72;;
55493;SDS011;41355;50.390;19.096;2023-03-23T10:24:18;10.00;;;4.15;;
55493;SDS011;41355;50.390;19.096;2023-03-23T10:27:07;9.45;;;3.15;;
55493;SDS011;41355;50.390;19.096;2023-03-23T10:29:39;10.70;;;3.20;;
55493;SDS011;41355;50.390;19.096;2023-03-23T10:32:10;12.02;;;3.42;;
55493;SDS011;41355;50.390;19.096;2023-03-23T10:34:46;11.05;;;3.92;;
55493;SDS011;41355;50.390;19.096;2023-03-23T10:37:24;13.55;;;4.70;;
55493;SDS011;41355;50.390;19.096;2023-03-23T10:39:52;10.23;;;3.17;;
55493;SDS011;41355;50.390;19.096;2023-03-23T10:42:26;9.07;;;4.20;;
55493;SDS011;41355;50.390;19.096;2023-03-23T10:44:53;10.10;;;2.97;;
55493;SDS011;41355;50.390;19.096;2023-03-23T10:47:19;9.25;;;3.45;;
55493;SDS011;41355;50.390;19.096;2023-03-23T10:49:53;9.18;;;3.85;;
55493;SDS011;41355;50.390;19.096;2023-03-23T10:54:50;11.65;;;3.65;;
55493;SDS011;41355;50.390;19.096;2023-03-23T10:57:25;11.30;;;4.38;;
55493;SDS011;41355;50.390;19.096;2023-03-23T11:00:04;10.20;;;3.28;;
55493;SDS011;41355;50.390;19.096;2023-03-23T11:02:35;14.57;;;4.95;;
55493;SDS011;41355;50.390;19.096;2023-03-23T11:05:03;10.05;;;2.75;;
55493;SDS011;41355;50.390;19.096;2023-03-23T11:07:31;11.98;;;4.05;;
55493;SDS011;41355;50.390;19.096;2023-03-23T11:10:05;6.38;;;2.30;;
55493;SDS011;41355;50.390;19.096;2023-03-23T11:12:34;14.43;;;2.90;;
55493;SDS011;41355;50.390;19.096;2023-03-23T11:15:27;9.88;;;3.90;;
55493;SDS011;41355;50.390;19.096;2023-03-23T11:18:01;9.65;;;3.45;;
55493;SDS011;41355;50.390;19.096;2023-03-23T11:20:27;14.68;;;4.65;;
55493;SDS011;41355;50.390;19.096;2023-03-23T11:22:54;8.25;;;3.53;;
55493;SDS011;41355;50.390;19.096;2023-03-23T11:25:21;10.43;;;3.70;;
55493;SDS011;41355;50.390;19.096;2023-03-23T11:27:47;13.25;;;4.18;;
55493;SDS011;41355;50.390;19.096;2023-03-23T11:30:27;8.35;;;2.20;;
55493;SDS011;41355;50.390;19.096;2023-03-23T11:32:58;9.63;;;2.70;;
55493;SDS011;41355;50.390;19.096;2023-03-23T11:35:26;6.85;;;3.03;;
55493;SDS011;41355;50.390;19.096;2023-03-23T11:37:56;10.48;;;4.03;;
55493;SDS011;41355;50.390;19.096;2023-03-23T11:40:24;7.28;;;2.83;;
55493;SDS011;41355;50.390;19.096;2023-03-23T11:43:11;17.90;;;6.50;;
55493;SDS011;41355;50.390;19.096;2023-03-23T11:45:39;5.97;;;2.28;;
55493;SDS011;41355;50.390;19.096;2023-03-23T11:48:14;8.20;;;3.33;;
55493;SDS011;41355;50.390;19.096;2023-03-23T11:51:01;11.02;;;4.45;;
55493;SDS011;41355;50.390;19.096;2023-03-23T11:53:31;16.42;;;6.72;;
55493;SDS011;41355;50.390;19.096;2023-03-23T11:58:28;7.75;;;3.20;;
55493;SDS011;41355;50.390;19.096;2023-03-23T12:17:10;7.30;;;3.08;;
55493;SDS011;41355;50.390;19.096;2023-03-23T12:19:57;12.13;;;3.47;;
55493;SDS011;41355;50.390;19.096;2023-03-23T12:25:19;8.77;;;2.42;;
55493;SDS011;41355;50.390;19.096;2023-03-23T12:27:52;8.80;;;2.42;;
55493;SDS011;41355;50.390;19.096;2023-03-23T12:30:29;11.23;;;4.20;;
55493;SDS011;41355;50.390;19.096;2023-03-23T12:33:20;8.60;;;3.15;;
55493;SDS011;41355;50.390;19.096;2023-03-23T12:38:22;15.45;;;6.88;;
55493;SDS011;41355;50.390;19.096;2023-03-23T12:46:10;8.13;;;2.90;;
55493;SDS011;41355;50.390;19.096;2023-03-23T12:48:40;9.98;;;4.18;;
55493;SDS011;41355;50.390;19.096;2023-03-23T12:56:34;10.85;;;3.95;;
55493;SDS011;41355;50.390;19.096;2023-03-23T13:01:38;31.17;;;9.57;;
55493;SDS011;41355;50.390;19.096;2023-03-23T13:04:13;16.13;;;6.28;;
55493;SDS011;41355;50.390;19.096;2023-03-23T13:06:41;11.45;;;4.75;;
55493;SDS011;41355;50.390;19.096;2023-03-23T13:09:19;29.13;;;10.18;;
55493;SDS011;41355;50.390;19.096;2023-03-23T13:11:47;16.58;;;6.40;;
55493;SDS011;41355;50.390;19.096;2023-03-23T13:14:30;15.07;;;6.13;;
55493;SDS011;41355;50.390;19.096;2023-03-23T13:22:31;39.47;;;17.42;;
55493;SDS011;41355;50.390;19.096;2023-03-23T13:25:00;38.63;;;20.70;;
55493;SDS011;41355;50.390;19.096;2023-03-23T13:27:27;23.23;;;9.20;;
55493;SDS011;41355;50.390;19.096;2023-03-23T13:29:55;28.10;;;13.93;;
55493;SDS011;41355;50.390;19.096;2023-03-23T13:32:29;37.35;;;13.88;;
55493;SDS011;41355;50.390;19.096;2023-03-23T13:34:56;33.38;;;10.60;;
55493;SDS011;41355;50.390;19.096;2023-03-23T13:37:23;39.25;;;13.15;;
55493;SDS011;41355;50.390;19.096;2023-03-23T13:42:19;17.20;;;7.85;;
55493;SDS011;41355;50.390;19.096;2023-03-23T13:50:00;12.88;;;5.07;;
55493;SDS011;41355;50.390;19.096;2023-03-23T13:52:38;14.50;;;5.60;;
55493;SDS011;41355;50.390;19.096;2023-03-23T14:05:36;8.52;;;3.90;;
55493;SDS011;41355;50.390;19.096;2023-03-23T14:13:42;11.07;;;6.40;;
55493;SDS011;41355;50.390;19.096;2023-03-23T14:16:17;21.08;;;10.00;;
55493;SDS011;41355;50.390;19.096;2023-03-23T14:18:48;15.10;;;8.10;;
55493;SDS011;41355;50.390;19.096;2023-03-23T14:21:16;12.52;;;6.10;;
55493;SDS011;41355;50.390;19.096;2023-03-23T14:23:42;30.73;;;15.50;;
55493;SDS011;41355;50.390;19.096;2023-03-23T14:26:12;36.45;;;15.10;;
55493;SDS011;41355;50.390;19.096;2023-03-23T14:28:42;94.70;;;42.03;;
55493;SDS011;41355;50.390;19.096;2023-03-23T14:31:16;30.55;;;12.48;;
55493;SDS011;41355;50.390;19.096;2023-03-23T14:33:43;54.53;;;22.70;;
55493;SDS011;41355;50.390;19.096;2023-03-23T14:36:09;42.42;;;15.80;;
55493;SDS011;41355;50.390;19.096;2023-03-23T14:38:35;93.00;;;41.30;;
55493;SDS011;41355;50.390;19.096;2023-03-23T14:41:04;60.47;;;25.35;;
55493;SDS011;41355;50.390;19.096;2023-03-23T14:43:32;15.13;;;6.70;;
55493;SDS011;41355;50.390;19.096;2023-03-23T14:46:00;33.88;;;13.73;;
55493;SDS011;41355;50.390;19.096;2023-03-23T14:48:26;18.40;;;7.65;;
55493;SDS011;41355;50.390;19.096;2023-03-23T14:53:42;9.52;;;3.85;;
55493;SDS011;41355;50.390;19.096;2023-03-23T14:56:15;8.27;;;2.95;;
55493;SDS011;41355;50.390;19.096;2023-03-23T14:58:45;12.88;;;6.25;;
55493;SDS011;41355;50.390;19.096;2023-03-23T15:01:12;55.42;;;22.63;;
55493;SDS011;41355;50.390;19.096;2023-03-23T15:03:41;27.98;;;9.95;;
55493;SDS011;41355;50.390;19.096;2023-03-23T15:06:12;26.10;;;14.75;;
55493;SDS011;41355;50.390;19.096;2023-03-23T15:08:40;19.70;;;10.65;;
55493;SDS011;41355;50.390;19.096;2023-03-23T15:13:53;36.45;;;16.70;;
55493;SDS011;41355;50.390;19.096;2023-03-23T15:16:27;14.15;;;5.70;;
55493;SDS011;41355;50.390;19.096;2023-03-23T15:18:54;19.30;;;7.90;;
55493;SDS011;41355;50.390;19.096;2023-03-23T15:21:26;21.00;;;9.82;;
55493;SDS011;41355;50.390;19.096;2023-03-23T15:23:52;12.70;;;5.35;;
55493;SDS011;41355;50.390;19.096;2023-03-23T15:26:25;21.25;;;6.63;;
55493;SDS011;41355;50.390;19.096;2023-03-23T15:31:33;20.10;;;8.57;;
55493;SDS011;41355;50.390;19.096;2023-03-23T15:34:02;14.38;;;6.20;;
55493;SDS011;41355;50.390;19.096;2023-03-23T15:36:31;15.05;;;6.72;;
55493;SDS011;41355;50.390;19.096;2023-03-23T15:38:58;11.63;;;4.78;;
55493;SDS011;41355;50.390;19.096;2023-03-23T15:41:28;16.60;;;5.75;;
55493;SDS011;41355;50.390;19.096;2023-03-23T15:44:08;12.65;;;5.03;;
55493;SDS011;41355;50.390;19.096;2023-03-23T15:46:35;15.18;;;5.82;;
55493;SDS011;41355;50.390;19.096;2023-03-23T15:49:06;17.45;;;6.15;;
55493;SDS011;41355;50.390;19.096;2023-03-23T15:51:34;18.65;;;6.90;;
55493;SDS011;41355;50.390;19.096;2023-03-23T15:54:01;32.65;;;18.08;;
55493;SDS011;41355;50.390;19.096;2023-03-23T15:56:27;22.88;;;8.75;;
55493;SDS011;41355;50.390;19.096;2023-03-23T15:58:56;20.33;;;8.75;;
55493;SDS011;41355;50.390;19.096;2023-03-23T16:01:26;24.90;;;10.95;;
55493;SDS011;41355;50.390;19.096;2023-03-23T16:04:15;20.98;;;6.95;;
55493;SDS011;41355;50.390;19.096;2023-03-23T16:06:39;19.35;;;7.07;;
55493;SDS011;41355;50.390;19.096;2023-03-23T16:09:06;29.15;;;11.25;;
55493;SDS011;41355;50.390;19.096;2023-03-23T16:11:35;19.52;;;7.75;;
55493;SDS011;41355;50.390;19.096;2023-03-23T16:14:01;32.30;;;14.23;;
55493;SDS011;41355;50.390;19.096;2023-03-23T16:16:32;19.65;;;8.40;;
55493;SDS011;41355;50.390;19.096;2023-03-23T16:18:59;26.08;;;12.23;;
55493;SDS011;41355;50.390;19.096;2023-03-23T16:21:25;20.30;;;9.93;;